Time,TemperatureF,DewpointF,PressureIn,WindDirection,WindDirectionDegrees,WindSpeedMPH,WindSpeedGustMPH,Humidity,HourlyPrecipIn,Conditions,Clouds,dailyrainin,SoftwareType,DateUTC
2013-05-09 00:01:00,74.0,46.0,-100.00,SE,140,12.0,15.0,36,-99.99,,,-99.99,,2013-05-09 07:01:00,
2013-05-09 01:02:00,72.0,47.0,-100.00,SSE,155,13.0,21.0,40,-99.99,,,-99.99,,2013-05-09 08:02:00,
2013-05-09 02:02:00,70.0,46.0,-100.00,SSE,160,9.0,17.0,42,-99.99,,,-99.99,,2013-05-09 09:02:00,
2013-05-09 03:02:00,67.0,46.0,-100.00,SE,140,10.0,14.0,46,-99.99,,,-99.99,,2013-05-09 10:02:00,
2013-05-09 03:12:00,67.0,46.0,-100.00,SE,140,10.0,14.0,46,-99.99,,,-99.99,,2013-05-09 10:12:00,
2013-05-09 04:02:00,66.0,46.0,-100.00,SE,125,9.0,21.0,48,-99.99,,,-99.99,,2013-05-09 11:02:00,
2013-05-09 05:01:00,64.0,45.0,-100.00,SSE,155,9.0,15.0,49,-99.99,,,-99.99,,2013-05-09 12:01:00,
2013-05-09 05:11:00,64.0,45.0,-100.00,SSE,155,9.0,15.0,49,-99.99,,,-99.99,,2013-05-09 12:11:00,
2013-05-09 06:01:00,62.0,44.0,-100.00,SSE,155,12.0,18.0,51,-99.99,,,-99.99,,2013-05-09 13:01:00,
2013-05-09 06:10:00,62.0,43.0,-100.00,SSE,155,9.0,14.0,49,-99.99,,,-99.99,,2013-05-09 13:10:00,
2013-05-09 07:01:00,62.0,43.0,-100.00,SSE,155,9.0,14.0,49,-99.99,,,-99.99,,2013-05-09 14:01:00,
2013-05-09 08:01:00,61.0,43.0,-100.00,NNE,25,9.0,15.0,51,-99.99,,,-99.99,,2013-05-09 15:01:00,
2013-05-09 08:10:00,64.0,44.0,-100.00,North,10,13.0,21.0,48,-99.99,,,-99.99,,2013-05-09 15:10:00,
2013-05-09 09:00:00,69.0,43.0,-100.00,SE,145,14.0,17.0,38,-99.99,,,-99.99,,2013-05-09 16:00:00,
2013-05-09 09:03:00,64.0,44.0,-100.00,North,10,13.0,21.0,48,-99.99,,,-99.99,,2013-05-09 16:03:00,
2013-05-09 10:10:00,74.0,44.0,-100.00,SSE,155,10.0,15.0,34,-99.99,,,-99.99,,2013-05-09 17:10:00,
2013-05-09 11:01:00,74.0,44.0,-100.00,SSE,155,10.0,15.0,34,-99.99,,,-99.99,,2013-05-09 18:01:00,
2013-05-09 11:20:00,79.0,41.0,-100.00,SSE,155,9.0,13.0,25,-99.99,,,-99.99,,2013-05-09 18:20:00,
2013-05-09 12:01:00,79.0,41.0,-100.00,SSE,155,9.0,13.0,25,-99.99,,,-99.99,,2013-05-09 19:01:00,
2013-05-09 12:11:00,79.0,41.0,-100.00,SSE,155,9.0,13.0,25,-99.99,,,-99.99,,2013-05-09 19:11:00,
2013-05-09 14:01:00,88.0,29.0,-100.00,East,90,3.0,6.0,11,-99.99,,,-99.99,,2013-05-09 21:01:00,
2013-05-09 14:10:00,90.0,26.0,-100.00,ENE,75,3.0,5.0,9,-99.99,,,-99.99,,2013-05-09 21:10:00,
2013-05-09 14:11:00,88.0,29.0,-100.00,East,90,3.0,6.0,11,-99.99,,,-99.99,,2013-05-09 21:11:00,
2013-05-09 15:03:00,90.0,26.0,-100.00,ENE,75,3.0,5.0,9,-99.99,,,-99.99,,2013-05-09 22:03:00,
2013-05-09 16:02:00,90.0,38.0,-100.00,NW,305,6.0,9.0,16,-99.99,,,-99.99,,2013-05-09 23:02:00,
2013-05-09 16:12:00,90.0,38.0,-100.00,NW,305,6.0,9.0,16,-99.99,,,-99.99,,2013-05-09 23:12:00,
2013-05-09 17:01:00,91.0,37.0,-100.00,North,360,3.0,7.0,15,-99.99,,,-99.99,,2013-05-10 00:01:00,
2013-05-09 18:01:00,92.0,39.0,-100.00,West,275,3.0,7.0,15,-99.99,,,-99.99,,2013-05-10 01:01:00,
2013-05-09 18:11:00,92.0,39.0,-100.00,West,275,3.0,7.0,15,-99.99,,,-99.99,,2013-05-10 01:11:00,
2013-05-09 19:01:00,91.0,40.0,-100.00,NW,305,3.0,5.0,16,-99.99,,,-99.99,,2013-05-10 02:01:00,
2013-05-09 20:01:00,89.0,40.0,-100.00,WNW,300,3.0,5.0,17,-99.99,,,-99.99,,2013-05-10 03:01:00,
2013-05-09 20:11:00,89.0,40.0,-100.00,WNW,300,3.0,5.0,17,-99.99,,,-99.99,,2013-05-10 03:11:00,
2013-05-09 21:03:00,83.0,35.0,-100.00,SSE,165,6.0,9.0,17,-99.99,,,-99.99,,2013-05-10 04:03:00,
2013-05-09 22:02:00,78.0,35.0,-100.00,SE,130,6.0,8.0,21,-99.99,,,-99.99,,2013-05-10 05:02:00,
2013-05-09 22:12:00,78.0,35.0,-100.00,SE,130,6.0,8.0,21,-99.99,,,-99.99,,2013-05-10 05:12:00,
2013-05-09 23:01:00,77.0,37.0,-100.00,SSE,160,8.0,12.0,23,-99.99,,,-99.99,,2013-05-10 06:01:00,
2013-05-09 23:10:00,74.0,40.0,-100.00,SSE,165,13.0,15.0,29,-99.99,,,-99.99,,2013-05-10 06:10:00,